sensor_id;sensor_type;location;lat;lon;timestamp;P1;durP1;ratioP1;P2;durP2;ratioP2
35699;SDS011;21818;51.078;12.108;2024-02-21T00:00:05;8.13;;;1.98;;
35699;SDS011;21818;51.078;12.108;2024-02-21T00:02:31;7.63;;;2.05;;
35699;SDS011;21818;51.078;12.108;2024-02-21T00:04:57;10.05;;;2.20;;
35699;SDS011;21818;51.078;12.108;2024-02-21T00:07:22;15.85;;;2.50;;
35699;SDS011;21818;51.078;12.108;2024-02-21T00:09:48;8.07;;;2.47;;
35699;SDS011;21818;51.078;12.108;2024-02-21T00:12:14;10.27;;;2.17;;
35699;SDS011;21818;51.078;12.108;2024-02-21T00:14:39;10.85;;;3.00;;
35699;SDS011;21818;51.078;12.108;2024-02-21T00:17:05;8.48;;;1.92;;
35699;SDS011;21818;51.078;12.108;2024-02-21T00:19:33;6.00;;;2.22;;
35699;SDS011;21818;51.078;12.108;2024-02-21T00:21:59;7.43;;;2.90;;
35699;SDS011;21818;51.078;12.108;2024-02-21T00:24:24;6.63;;;2.05;;
35699;SDS011;21818;51.078;12.108;2024-02-21T00:26:50;8.35;;;2.55;;
35699;SDS011;21818;51.078;12.108;2024-02-21T00:29:15;6.57;;;1.92;;
35699;SDS011;21818;51.078;12.108;2024-02-21T00:31:41;7.35;;;1.70;;
35699;SDS011;21818;51.078;12.108;2024-02-21T00:34:06;7.68;;;2.40;;
35699;SDS011;21818;51.078;12.108;2024-02-21T00:36:32;5.78;;;2.38;;
35699;SDS011;21818;51.078;12.108;2024-02-21T00:38:58;9.23;;;2.20;;
35699;SDS011;21818;51.078;12.108;2024-02-21T00:41:23;10.90;;;2.20;;
35699;SDS011;21818;51.078;12.108;2024-02-21T00:43:49;7.88;;;2.40;;
35699;SDS011;21818;51.078;12.108;2024-02-21T00:46:15;8.68;;;2.03;;
35699;SDS011;21818;51.078;12.108;2024-02-21T00:48:40;7.38;;;2.05;;
35699;SDS011;21818;51.078;12.108;2024-02-21T00:51:06;6.78;;;2.10;;
35699;SDS011;21818;51.078;12.108;2024-02-21T00:53:32;7.57;;;2.25;;
35699;SDS011;21818;51.078;12.108;2024-02-21T00:55:57;11.98;;;2.47;;
35699;SDS011;21818;51.078;12.108;2024-02-21T00:58:23;8.77;;;2.58;;
35699;SDS011;21818;51.078;12.108;2024-02-21T01:00:49;6.82;;;2.58;;
35699;SDS011;21818;51.078;12.108;2024-02-21T01:03:14;7.40;;;2.53;;
35699;SDS011;21818;51.078;12.108;2024-02-21T01:05:40;11.52;;;2.30;;
35699;SDS011;21818;51.078;12.108;2024-02-21T01:08:05;9.63;;;2.38;;
35699;SDS011;21818;51.078;12.108;2024-02-21T01:10:31;5.50;;;1.52;;
35699;SDS011;21818;51.078;12.108;2024-02-21T01:12:57;10.07;;;2.40;;
35699;SDS011;21818;51.078;12.108;2024-02-21T01:15:22;7.60;;;1.98;;
35699;SDS011;21818;51.078;12.108;2024-02-21T01:17:48;9.75;;;2.35;;
35699;SDS011;21818;51.078;12.108;2024-02-21T01:20:14;7.38;;;2.20;;
35699;SDS011;21818;51.078;12.108;2024-02-21T01:22:40;8.30;;;2.10;;
35699;SDS011;21818;51.078;12.108;2024-02-21T01:25:06;10.27;;;2.53;;
35699;SDS011;21818;51.078;12.108;2024-02-21T01:27:32;7.15;;;2.60;;
35699;SDS011;21818;51.078;12.108;2024-02-21T01:29:57;11.32;;;2.15;;
35699;SDS011;21818;51.078;12.108;2024-02-21T01:32:23;9.68;;;1.80;;
35699;SDS011;21818;51.078;12.108;2024-02-21T01:34:49;5.80;;;1.92;;
35699;SDS011;21818;51.078;12.108;2024-02-21T01:37:15;7.28;;;2.08;;
35699;SDS011;21818;51.078;12.108;2024-02-21T01:39:40;10.77;;;2.42;;
35699;SDS011;21818;51.078;12.108;2024-02-21T01:42:06;9.40;;;2.10;;
35699;SDS011;21818;51.078;12.108;2024-02-21T01:44:32;10.05;;;2.53;;
35699;SDS011;21818;51.078;12.108;2024-02-21T01:46:57;16.52;;;2.72;;
35699;SDS011;21818;51.078;12.108;2024-02-21T01:49:23;9.73;;;1.90;;
35699;SDS011;21818;51.078;12.108;2024-02-21T01:51:49;7.80;;;2.45;;
35699;SDS011;21818;51.078;12.108;2024-02-21T01:54:15;10.73;;;2.03;;
35699;SDS011;21818;51.078;12.108;2024-02-21T01:56:42;8.60;;;1.80;;
35699;SDS011;21818;51.078;12.108;2024-02-21T01:59:08;7.18;;;2.42;;
35699;SDS011;21818;51.078;12.108;2024-02-21T02:01:34;11.68;;;2.30;;
35699;SDS011;21818;51.078;12.108;2024-02-21T02:03:59;9.68;;;2.83;;
35699;SDS011;21818;51.078;12.108;2024-02-21T02:06:25;11.27;;;2.53;;
35699;SDS011;21818;51.078;12.108;2024-02-21T02:08:51;8.80;;;2.13;;
35699;SDS011;21818;51.078;12.108;2024-02-21T02:11:17;9.68;;;2.35;;
35699;SDS011;21818;51.078;12.108;2024-02-21T02:13:43;9.10;;;2.72;;
35699;SDS011;21818;51.078;12.108;2024-02-21T02:16:09;7.85;;;1.83;;
35699;SDS011;21818;51.078;12.108;2024-02-21T02:18:34;7.65;;;2.08;;
35699;SDS011;21818;51.078;12.108;2024-02-21T02:21:00;13.45;;;3.30;;
35699;SDS011;21818;51.078;12.108;2024-02-21T02:25:56;8.73;;;2.27;;
35699;SDS011;21818;51.078;12.108;2024-02-21T02:28:21;11.25;;;2.60;;
35699;SDS011;21818;51.078;12.108;2024-02-21T02:30:47;7.93;;;2.28;;
35699;SDS011;21818;51.078;12.108;2024-02-21T02:33:14;7.40;;;2.28;;
35699;SDS011;21818;51.078;12.108;2024-02-21T02:35:40;7.30;;;1.95;;
35699;SDS011;21818;51.078;12.108;2024-02-21T02:38:05;8.43;;;2.58;;
35699;SDS011;21818;51.078;12.108;2024-02-21T02:40:33;7.53;;;2.03;;
35699;SDS011;21818;51.078;12.108;2024-02-21T02:42:58;9.38;;;1.98;;
35699;SDS011;21818;51.078;12.108;2024-02-21T02:45:24;6.32;;;1.98;;
35699;SDS011;21818;51.078;12.108;2024-02-21T02:47:51;11.93;;;2.53;;
35699;SDS011;21818;51.078;12.108;2024-02-21T02:50:19;8.65;;;2.30;;
35699;SDS011;21818;51.078;12.108;2024-02-21T02:52:44;15.10;;;2.47;;
35699;SDS011;21818;51.078;12.108;2024-02-21T02:55:10;6.25;;;2.42;;
35699;SDS011;21818;51.078;12.108;2024-02-21T02:57:35;6.88;;;2.10;;
35699;SDS011;21818;51.078;12.108;2024-02-21T03:00:01;7.10;;;2.78;;
35699;SDS011;21818;51.078;12.108;2024-02-21T03:02:28;9.00;;;2.88;;
35699;SDS011;21818;51.078;12.108;2024-02-21T03:04:53;8.20;;;2.22;;
35699;SDS011;21818;51.078;12.108;2024-02-21T03:07:19;6.60;;;2.08;;
35699;SDS011;21818;51.078;12.108;2024-02-21T03:09:45;10.80;;;1.90;;
35699;SDS011;21818;51.078;12.108;2024-02-21T03:12:10;10.00;;;2.13;;
35699;SDS011;21818;51.078;12.108;2024-02-21T03:14:36;8.60;;;2.38;;
35699;SDS011;21818;51.078;12.108;2024-02-21T03:17:02;9.82;;;2.10;;
35699;SDS011;21818;51.078;12.108;2024-02-21T03:19:28;9.30;;;2.10;;
35699;SDS011;21818;51.078;12.108;2024-02-21T03:21:54;10.98;;;2.90;;
35699;SDS011;21818;51.078;12.108;2024-02-21T03:24:20;9.38;;;1.80;;
35699;SDS011;21818;51.078;12.108;2024-02-21T03:26:45;13.98;;;2.70;;
35699;SDS011;21818;51.078;12.108;2024-02-21T03:29:13;7.50;;;1.90;;
35699;SDS011;21818;51.078;12.108;2024-02-21T03:31:40;8.70;;;2.13;;
35699;SDS011;21818;51.078;12.108;2024-02-21T03:34:05;9.80;;;2.10;;
35699;SDS011;21818;51.078;12.108;2024-02-21T03:36:31;9.13;;;2.00;;
35699;SDS011;21818;51.078;12.108;2024-02-21T03:38:56;8.95;;;2.90;;
35699;SDS011;21818;51.078;12.108;2024-02-21T03:41:22;5.07;;;1.70;;
35699;SDS011;21818;51.078;12.108;2024-02-21T03:43:47;10.88;;;2.65;;
35699;SDS011;21818;51.078;12.108;2024-02-21T03:46:14;10.77;;;2.70;;
35699;SDS011;21818;51.078;12.108;2024-02-21T03:48:40;10.15;;;2.20;;
35699;SDS011;21818;51.078;12.108;2024-02-21T03:51:05;7.90;;;2.92;;
35699;SDS011;21818;51.078;12.108;2024-02-21T03:53:31;7.47;;;2.08;;
35699;SDS011;21818;51.078;12.108;2024-02-21T03:55:57;12.85;;;3.92;;
35699;SDS011;21818;51.078;12.108;2024-02-21T03:58:27;7.93;;;2.65;;
35699;SDS011;21818;51.078;12.108;2024-02-21T04:00:53;12.75;;;2.28;;
35699;SDS011;21818;51.078;12.108;2024-02-21T04:03:19;8.68;;;3.30;;
35699;SDS011;21818;51.078;12.108;2024-02-21T04:05:44;9.35;;;2.40;;
35699;SDS011;21818;51.078;12.108;2024-02-21T04:08:10;7.40;;;2.42;;
35699;SDS011;21818;51.078;12.108;2024-02-21T04:10:36;9.82;;;2.25;;
35699;SDS011;21818;51.078;12.108;2024-02-21T04:13:02;9.40;;;2.55;;
35699;SDS011;21818;51.078;12.108;2024-02-21T04:15:28;12.27;;;2.40;;
35699;SDS011;21818;51.078;12.108;2024-02-21T04:17:54;9.23;;;2.28;;
35699;SDS011;21818;51.078;12.108;2024-02-21T04:20:20;9.15;;;2.42;;
35699;SDS011;21818;51.078;12.108;2024-02-21T04:22:45;6.55;;;2.20;;
35699;SDS011;21818;51.078;12.108;2024-02-21T04:25:11;7.55;;;2.38;;
35699;SDS011;21818;51.078;12.108;2024-02-21T04:27:38;10.20;;;2.65;;
35699;SDS011;21818;51.078;12.108;2024-02-21T04:30:04;12.68;;;3.17;;
35699;SDS011;21818;51.078;12.108;2024-02-21T04:32:31;10.98;;;2.90;;
35699;SDS011;21818;51.078;12.108;2024-02-21T04:34:57;10.73;;;2.67;;
35699;SDS011;21818;51.078;12.108;2024-02-21T04:37:22;8.77;;;3.20;;
35699;SDS011;21818;51.078;12.108;2024-02-21T04:39:48;8.65;;;2.63;;
35699;SDS011;21818;51.078;12.108;2024-02-21T04:42:14;19.45;;;3.85;;
35699;SDS011;21818;51.078;12.108;2024-02-21T04:44:40;10.60;;;3.22;;
35699;SDS011;21818;51.078;12.108;2024-02-21T04:47:06;9.35;;;3.15;;
35699;SDS011;21818;51.078;12.108;2024-02-21T04:49:32;15.00;;;2.78;;
35699;SDS011;21818;51.078;12.108;2024-02-21T04:51:58;6.90;;;2.65;;
35699;SDS011;21818;51.078;12.108;2024-02-21T04:54:23;7.57;;;2.67;;
35699;SDS011;21818;51.078;12.108;2024-02-21T04:56:49;4.72;;;2.67;;
35699;SDS011;21818;51.078;12.108;2024-02-21T04:59:15;8.40;;;2.72;;
35699;SDS011;21818;51.078;12.108;2024-02-21T05:01:41;11.85;;;3.03;;
35699;SDS011;21818;51.078;12.108;2024-02-21T05:04:07;8.80;;;2.60;;
35699;SDS011;21818;51.078;12.108;2024-02-21T05:06:36;10.55;;;2.97;;
35699;SDS011;21818;51.078;12.108;2024-02-21T05:09:05;7.50;;;2.33;;
35699;SDS011;21818;51.078;12.108;2024-02-21T05:11:31;5.78;;;2.25;;
35699;SDS011;21818;51.078;12.108;2024-02-21T05:13:57;8.73;;;2.63;;
35699;SDS011;21818;51.078;12.108;2024-02-21T05:16:22;6.63;;;2.63;;
35699;SDS011;21818;51.078;12.108;2024-02-21T05:18:48;9.07;;;2.55;;
35699;SDS011;21818;51.078;12.108;2024-02-21T05:21:14;5.47;;;1.92;;
35699;SDS011;21818;51.078;12.108;2024-02-21T05:23:39;8.90;;;2.47;;
35699;SDS011;21818;51.078;12.108;2024-02-21T05:26:05;9.30;;;2.65;;
35699;SDS011;21818;51.078;12.108;2024-02-21T05:28:31;8.10;;;2.50;;
35699;SDS011;21818;51.078;12.108;2024-02-21T05:30:57;9.82;;;2.90;;
35699;SDS011;21818;51.078;12.108;2024-02-21T05:33:23;11.15;;;2.08;;
35699;SDS011;21818;51.078;12.108;2024-02-21T05:35:49;5.90;;;2.40;;
35699;SDS011;21818;51.078;12.108;2024-02-21T05:38:15;11.00;;;2.22;;
35699;SDS011;21818;51.078;12.108;2024-02-21T05:40:41;7.07;;;2.30;;
35699;SDS011;21818;51.078;12.108;2024-02-21T05:43:07;9.60;;;2.75;;
35699;SDS011;21818;51.078;12.108;2024-02-21T05:45:33;6.82;;;2.38;;
35699;SDS011;21818;51.078;12.108;2024-02-21T05:47:59;6.68;;;2.85;;
35699;SDS011;21818;51.078;12.108;2024-02-21T05:50:25;9.75;;;2.33;;
35699;SDS011;21818;51.078;12.108;2024-02-21T05:52:53;10.25;;;2.35;;
35699;SDS011;21818;51.078;12.108;2024-02-21T05:55:20;7.82;;;2.67;;
35699;SDS011;21818;51.078;12.108;2024-02-21T05:57:46;8.48;;;2.55;;
35699;SDS011;21818;51.078;12.108;2024-02-21T06:00:12;7.13;;;2.22;;
35699;SDS011;21818;51.078;12.108;2024-02-21T06:02:38;7.18;;;2.47;;
35699;SDS011;21818;51.078;12.108;2024-02-21T06:05:04;6.00;;;2.45;;
35699;SDS011;21818;51.078;12.108;2024-02-21T06:07:32;8.10;;;2.90;;
35699;SDS011;21818;51.078;12.108;2024-02-21T06:09:58;13.88;;;2.38;;
35699;SDS011;21818;51.078;12.108;2024-02-21T06:12:24;10.40;;;2.47;;
35699;SDS011;21818;51.078;12.108;2024-02-21T06:14:50;8.88;;;2.00;;
35699;SDS011;21818;51.078;12.108;2024-02-21T06:17:15;6.78;;;2.70;;
35699;SDS011;21818;51.078;12.108;2024-02-21T06:19:42;8.10;;;2.40;;
35699;SDS011;21818;51.078;12.108;2024-02-21T06:22:08;5.43;;;2.58;;
35699;SDS011;21818;51.078;12.108;2024-02-21T06:24:34;8.18;;;2.53;;
35699;SDS011;21818;51.078;12.108;2024-02-21T06:27:01;7.28;;;2.13;;
35699;SDS011;21818;51.078;12.108;2024-02-21T06:29:33;7.05;;;2.20;;
35699;SDS011;21818;51.078;12.108;2024-02-21T06:31:59;8.70;;;2.30;;
35699;SDS011;21818;51.078;12.108;2024-02-21T06:34:24;9.98;;;2.65;;
35699;SDS011;21818;51.078;12.108;2024-02-21T06:36:50;6.82;;;2.63;;
35699;SDS011;21818;51.078;12.108;2024-02-21T06:39:16;6.43;;;2.40;;
35699;SDS011;21818;51.078;12.108;2024-02-21T06:41:41;8.43;;;2.25;;
35699;SDS011;21818;51.078;12.108;2024-02-21T06:44:07;8.63;;;2.25;;
35699;SDS011;21818;51.078;12.108;2024-02-21T06:46:33;7.03;;;2.35;;
35699;SDS011;21818;51.078;12.108;2024-02-21T06:48:58;12.00;;;2.92;;
35699;SDS011;21818;51.078;12.108;2024-02-21T06:51:29;10.13;;;2.30;;
35699;SDS011;21818;51.078;12.108;2024-02-21T06:53:54;9.18;;;2.42;;
35699;SDS011;21818;51.078;12.108;2024-02-21T06:56:20;15.93;;;2.40;;
35699;SDS011;21818;51.078;12.108;2024-02-21T06:58:51;8.48;;;2.20;;
35699;SDS011;21818;51.078;12.108;2024-02-21T07:01:17;7.43;;;2.25;;
35699;SDS011;21818;51.078;12.108;2024-02-21T07:03:42;7.38;;;2.75;;
35699;SDS011;21818;51.078;12.108;2024-02-21T07:06:08;7.18;;;2.25;;
35699;SDS011;21818;51.078;12.108;2024-02-21T07:08:34;9.10;;;2.00;;
35699;SDS011;21818;51.078;12.108;2024-02-21T07:10:59;6.88;;;2.35;;
35699;SDS011;21818;51.078;12.108;2024-02-21T07:13:25;12.77;;;3.20;;
35699;SDS011;21818;51.078;12.108;2024-02-21T07:15:50;9.32;;;3.25;;
35699;SDS011;21818;51.078;12.108;2024-02-21T07:18:16;4.28;;;1.83;;
35699;SDS011;21818;51.078;12.108;2024-02-21T07:20:41;8.48;;;2.35;;
35699;SDS011;21818;51.078;12.108;2024-02-21T07:23:08;10.90;;;2.40;;
35699;SDS011;21818;51.078;12.108;2024-02-21T07:25:33;9.02;;;2.20;;
35699;SDS011;21818;51.078;12.108;2024-02-21T07:27:59;9.73;;;2.95;;
35699;SDS011;21818;51.078;12.108;2024-02-21T07:30:25;7.07;;;2.30;;
35699;SDS011;21818;51.078;12.108;2024-02-21T07:32:50;7.78;;;2.08;;
35699;SDS011;21818;51.078;12.108;2024-02-21T07:35:17;8.02;;;2.10;;
35699;SDS011;21818;51.078;12.108;2024-02-21T07:37:43;12.77;;;2.67;;
35699;SDS011;21818;51.078;12.108;2024-02-21T07:40:14;5.47;;;2.00;;
35699;SDS011;21818;51.078;12.108;2024-02-21T07:42:41;7.38;;;2.28;;
35699;SDS011;21818;51.078;12.108;2024-02-21T07:45:07;7.50;;;2.08;;
35699;SDS011;21818;51.078;12.108;2024-02-21T07:47:33;6.10;;;2.58;;
35699;SDS011;21818;51.078;12.108;2024-02-21T07:49:59;14.00;;;3.28;;
35699;SDS011;21818;51.078;12.108;2024-02-21T07:52:25;7.60;;;2.55;;
35699;SDS011;21818;51.078;12.108;2024-02-21T07:54:51;5.82;;;2.30;;
35699;SDS011;21818;51.078;12.108;2024-02-21T07:57:16;6.88;;;1.92;;
35699;SDS011;21818;51.078;12.108;2024-02-21T07:59:42;7.63;;;1.98;;
35699;SDS011;21818;51.078;12.108;2024-02-21T08:02:08;6.30;;;1.70;;
35699;SDS011;21818;51.078;12.108;2024-02-21T08:04:33;6.85;;;1.45;;
35699;SDS011;21818;51.078;12.108;2024-02-21T08:06:59;8.35;;;1.92;;
35699;SDS011;21818;51.078;12.108;2024-02-21T08:09:27;4.93;;;2.20;;
35699;SDS011;21818;51.078;12.108;2024-02-21T08:11:53;5.28;;;1.98;;
35699;SDS011;21818;51.078;12.108;2024-02-21T08:14:19;5.50;;;1.95;;
35699;SDS011;21818;51.078;12.108;2024-02-21T08:16:45;4.40;;;1.70;;
35699;SDS011;21818;51.078;12.108;2024-02-21T08:19:11;9.43;;;2.00;;
35699;SDS011;21818;51.078;12.108;2024-02-21T08:21:36;5.70;;;1.45;;
35699;SDS011;21818;51.078;12.108;2024-02-21T08:24:02;3.40;;;2.05;;
35699;SDS011;21818;51.078;12.108;2024-02-21T08:26:28;4.05;;;1.52;;
35699;SDS011;21818;51.078;12.108;2024-02-21T08:28:56;5.72;;;2.03;;
35699;SDS011;21818;51.078;12.108;2024-02-21T08:31:24;5.78;;;1.77;;
35699;SDS011;21818;51.078;12.108;2024-02-21T08:36:28;7.72;;;2.08;;
35699;SDS011;21818;51.078;12.108;2024-02-21T08:38:54;8.35;;;2.10;;
35699;SDS011;21818;51.078;12.108;2024-02-21T08:41:20;5.55;;;1.85;;
35699;SDS011;21818;51.078;12.108;2024-02-21T08:43:48;7.28;;;1.95;;
35699;SDS011;21818;51.078;12.108;2024-02-21T08:46:14;6.00;;;1.73;;
35699;SDS011;21818;51.078;12.108;2024-02-21T08:48:39;6.90;;;1.88;;
35699;SDS011;21818;51.078;12.108;2024-02-21T08:51:05;6.85;;;1.63;;
35699;SDS011;21818;51.078;12.108;2024-02-21T08:53:31;3.88;;;1.58;;
35699;SDS011;21818;51.078;12.108;2024-02-21T08:55:56;5.05;;;1.90;;
35699;SDS011;21818;51.078;12.108;2024-02-21T08:58:22;6.82;;;1.98;;
35699;SDS011;21818;51.078;12.108;2024-02-21T09:00:49;4.05;;;1.75;;
35699;SDS011;21818;51.078;12.108;2024-02-21T09:03:16;4.18;;;1.63;;
35699;SDS011;21818;51.078;12.108;2024-02-21T09:05:42;6.57;;;1.95;;
35699;SDS011;21818;51.078;12.108;2024-02-21T09:08:08;5.68;;;1.73;;
35699;SDS011;21818;51.078;12.108;2024-02-21T09:10:34;5.50;;;1.50;;
35699;SDS011;21818;51.078;12.108;2024-02-21T09:12:59;6.30;;;1.77;;
35699;SDS011;21818;51.078;12.108;2024-02-21T09:15:25;9.43;;;2.20;;
35699;SDS011;21818;51.078;12.108;2024-02-21T09:17:51;8.02;;;1.90;;
35699;SDS011;21818;51.078;12.108;2024-02-21T09:20:17;5.65;;;1.67;;
35699;SDS011;21818;51.078;12.108;2024-02-21T09:22:43;7.80;;;2.17;;
35699;SDS011;21818;51.078;12.108;2024-02-21T09:25:08;3.67;;;1.58;;
35699;SDS011;21818;51.078;12.108;2024-02-21T09:27:36;8.75;;;2.22;;
35699;SDS011;21818;51.078;12.108;2024-02-21T09:30:03;4.65;;;1.75;;
35699;SDS011;21818;51.078;12.108;2024-02-21T09:32:30;5.47;;;2.00;;
35699;SDS011;21818;51.078;12.108;2024-02-21T09:34:55;4.63;;;1.80;;
35699;SDS011;21818;51.078;12.108;2024-02-21T09:37:21;5.35;;;1.95;;
35699;SDS011;21818;51.078;12.108;2024-02-21T09:39:48;4.68;;;1.42;;
35699;SDS011;21818;51.078;12.108;2024-02-21T09:42:15;3.60;;;1.65;;
35699;SDS011;21818;51.078;12.108;2024-02-21T09:44:45;5.47;;;1.65;;
35699;SDS011;21818;51.078;12.108;2024-02-21T09:47:18;4.80;;;1.45;;
35699;SDS011;21818;51.078;12.108;2024-02-21T09:49:49;3.40;;;1.63;;
35699;SDS011;21818;51.078;12.108;2024-02-21T09:52:16;7.03;;;1.73;;
35699;SDS011;21818;51.078;12.108;2024-02-21T09:54:44;3.20;;;1.27;;
35699;SDS011;21818;51.078;12.108;2024-02-21T09:57:10;3.20;;;1.65;;
35699;SDS011;21818;51.078;12.108;2024-02-21T09:59:36;5.57;;;1.50;;
35699;SDS011;21818;51.078;12.108;2024-02-21T10:02:02;5.50;;;1.27;;
35699;SDS011;21818;51.078;12.108;2024-02-21T10:04:29;5.57;;;1.58;;
35699;SDS011;21818;51.078;12.108;2024-02-21T10:06:55;4.25;;;1.40;;
35699;SDS011;21818;51.078;12.108;2024-02-21T10:09:21;6.35;;;1.65;;
35699;SDS011;21818;51.078;12.108;2024-02-21T10:11:54;4.35;;;1.45;;
35699;SDS011;21818;51.078;12.108;2024-02-21T10:14:21;2.75;;;1.27;;
35699;SDS011;21818;51.078;12.108;2024-02-21T10:16:47;4.22;;;1.20;;
35699;SDS011;21818;51.078;12.108;2024-02-21T10:19:19;4.93;;;1.48;;
35699;SDS011;21818;51.078;12.108;2024-02-21T10:22:04;6.28;;;2.53;;
35699;SDS011;21818;51.078;12.108;2024-02-21T10:24:33;5.15;;;1.60;;
35699;SDS011;21818;51.078;12.108;2024-02-21T10:27:03;3.60;;;1.27;;
35699;SDS011;21818;51.078;12.108;2024-02-21T10:29:35;2.13;;;1.30;;
35699;SDS011;21818;51.078;12.108;2024-02-21T10:32:05;3.30;;;1.10;;
35699;SDS011;21818;51.078;12.108;2024-02-21T10:34:35;2.60;;;1.63;;
35699;SDS011;21818;51.078;12.108;2024-02-21T10:37:02;3.22;;;1.35;;
35699;SDS011;21818;51.078;12.108;2024-02-21T10:39:32;4.13;;;1.40;;
35699;SDS011;21818;51.078;12.108;2024-02-21T10:41:59;3.63;;;1.15;;
35699;SDS011;21818;51.078;12.108;2024-02-21T10:44:29;5.50;;;1.20;;
35699;SDS011;21818;51.078;12.108;2024-02-21T10:46:57;5.30;;;1.65;;
35699;SDS011;21818;51.078;12.108;2024-02-21T10:49:23;3.88;;;1.65;;
35699;SDS011;21818;51.078;12.108;2024-02-21T10:52:16;2.60;;;1.25;;
35699;SDS011;21818;51.078;12.108;2024-02-21T10:57:15;4.20;;;2.25;;
35699;SDS011;21818;51.078;12.108;2024-02-21T10:59:41;3.20;;;1.63;;
35699;SDS011;21818;51.078;12.108;2024-02-21T11:02:09;6.50;;;1.80;;
35699;SDS011;21818;51.078;12.108;2024-02-21T11:04:35;3.40;;;1.23;;
35699;SDS011;21818;51.078;12.108;2024-02-21T11:07:03;3.92;;;1.30;;
35699;SDS011;21818;51.078;12.108;2024-02-21T11:09:30;3.55;;;1.55;;
35699;SDS011;21818;51.078;12.108;2024-02-21T11:12:02;5.28;;;1.25;;
35699;SDS011;21818;51.078;12.108;2024-02-21T11:14:29;5.07;;;1.57;;
35699;SDS011;21818;51.078;12.108;2024-02-21T11:17:01;2.97;;;1.48;;
35699;SDS011;21818;51.078;12.108;2024-02-21T11:19:28;3.20;;;1.05;;
35699;SDS011;21818;51.078;12.108;2024-02-21T11:21:56;4.22;;;1.08;;
35699;SDS011;21818;51.078;12.108;2024-02-21T11:24:34;4.30;;;2.10;;
35699;SDS011;21818;51.078;12.108;2024-02-21T11:27:12;2.28;;;1.10;;
35699;SDS011;21818;51.078;12.108;2024-02-21T11:29:48;2.85;;;1.50;;
35699;SDS011;21818;51.078;12.108;2024-02-21T11:32:19;2.45;;;1.10;;
35699;SDS011;21818;51.078;12.108;2024-02-21T11:37:19;5.30;;;1.40;;
35699;SDS011;21818;51.078;12.108;2024-02-21T11:39:45;3.97;;;1.30;;
35699;SDS011;21818;51.078;12.108;2024-02-21T11:42:11;3.55;;;1.17;;
35699;SDS011;21818;51.078;12.108;2024-02-21T11:44:37;3.25;;;1.23;;
35699;SDS011;21818;51.078;12.108;2024-02-21T11:47:04;5.10;;;1.20;;
35699;SDS011;21818;51.078;12.108;2024-02-21T11:49:31;3.47;;;1.45;;
35699;SDS011;21818;51.078;12.108;2024-02-21T11:52:01;2.87;;;1.10;;
35699;SDS011;21818;51.078;12.108;2024-02-21T11:54:31;4.63;;;1.40;;
35699;SDS011;21818;51.078;12.108;2024-02-21T11:56:56;2.05;;;1.10;;
35699;SDS011;21818;51.078;12.108;2024-02-21T11:59:22;5.07;;;1.48;;
35699;SDS011;21818;51.078;12.108;2024-02-21T12:01:48;2.63;;;1.40;;
35699;SDS011;21818;51.078;12.108;2024-02-21T12:04:15;3.30;;;0.98;;
35699;SDS011;21818;51.078;12.108;2024-02-21T12:06:42;3.30;;;1.17;;
35699;SDS011;21818;51.078;12.108;2024-02-21T12:09:09;1.40;;;0.90;;
35699;SDS011;21818;51.078;12.108;2024-02-21T12:11:34;4.50;;;1.50;;
35699;SDS011;21818;51.078;12.108;2024-02-21T12:14:01;2.38;;;1.00;;
35699;SDS011;21818;51.078;12.108;2024-02-21T12:16:28;3.00;;;1.08;;
35699;SDS011;21818;51.078;12.108;2024-02-21T12:18:55;2.63;;;1.40;;
35699;SDS011;21818;51.078;12.108;2024-02-21T12:21:25;1.92;;;0.93;;
35699;SDS011;21818;51.078;12.108;2024-02-21T12:23:53;3.08;;;1.00;;
35699;SDS011;21818;51.078;12.108;2024-02-21T12:26:20;2.15;;;1.08;;
35699;SDS011;21818;51.078;12.108;2024-02-21T12:28:45;3.47;;;1.00;;
35699;SDS011;21818;51.078;12.108;2024-02-21T12:31:11;2.28;;;0.98;;
35699;SDS011;21818;51.078;12.108;2024-02-21T12:33:37;5.05;;;1.17;;
35699;SDS011;21818;51.078;12.108;2024-02-21T12:36:03;4.25;;;1.20;;
35699;SDS011;21818;51.078;12.108;2024-02-21T12:38:29;3.30;;;1.40;;
35699;SDS011;21818;51.078;12.108;2024-02-21T12:40:54;3.28;;;1.08;;
35699;SDS011;21818;51.078;12.108;2024-02-21T12:43:22;3.25;;;0.80;;
35699;SDS011;21818;51.078;12.108;2024-02-21T12:45:48;2.25;;;1.15;;
35699;SDS011;21818;51.078;12.108;2024-02-21T12:48:14;2.42;;;0.80;;
35699;SDS011;21818;51.078;12.108;2024-02-21T12:50:40;3.88;;;1.20;;
35699;SDS011;21818;51.078;12.108;2024-02-21T12:53:13;3.78;;;1.00;;
35699;SDS011;21818;51.078;12.108;2024-02-21T12:55:40;1.73;;;0.90;;
35699;SDS011;21818;51.078;12.108;2024-02-21T12:58:06;2.58;;;0.90;;
35699;SDS011;21818;51.078;12.108;2024-02-21T13:00:32;3.25;;;1.00;;
35699;SDS011;21818;51.078;12.108;2024-02-21T13:02:57;3.33;;;1.05;;
35699;SDS011;21818;51.078;12.108;2024-02-21T13:05:23;2.13;;;1.00;;
35699;SDS011;21818;51.078;12.108;2024-02-21T13:07:49;3.38;;;1.15;;
35699;SDS011;21818;51.078;12.108;2024-02-21T13:10:14;1.95;;;0.60;;
35699;SDS011;21818;51.078;12.108;2024-02-21T13:12:40;1.63;;;1.20;;
35699;SDS011;21818;51.078;12.108;2024-02-21T13:15:06;2.67;;;1.20;;
35699;SDS011;21818;51.078;12.108;2024-02-21T13:17:32;2.45;;;1.08;;
35699;SDS011;21818;51.078;12.108;2024-02-21T13:19:58;4.28;;;0.90;;
35699;SDS011;21818;51.078;12.108;2024-02-21T13:22:23;2.35;;;1.10;;
35699;SDS011;21818;51.078;12.108;2024-02-21T13:24:51;2.92;;;1.00;;
35699;SDS011;21818;51.078;12.108;2024-02-21T13:27:17;2.42;;;1.13;;
35699;SDS011;21818;51.078;12.108;2024-02-21T13:29:42;2.83;;;1.05;;
35699;SDS011;21818;51.078;12.108;2024-02-21T13:32:08;3.95;;;1.27;;
35699;SDS011;21818;51.078;12.108;2024-02-21T13:34:33;2.67;;;1.17;;
35699;SDS011;21818;51.078;12.108;2024-02-21T13:36:59;2.47;;;1.10;;
35699;SDS011;21818;51.078;12.108;2024-02-21T13:39:25;1.63;;;0.70;;
35699;SDS011;21818;51.078;12.108;2024-02-21T13:41:50;1.63;;;1.02;;
35699;SDS011;21818;51.078;12.108;2024-02-21T13:44:16;2.63;;;0.95;;
35699;SDS011;21818;51.078;12.108;2024-02-21T13:46:41;4.50;;;1.40;;
35699;SDS011;21818;51.078;12.108;2024-02-21T13:49:07;4.55;;;1.58;;
35699;SDS011;21818;51.078;12.108;2024-02-21T13:51:35;3.95;;;1.23;;
35699;SDS011;21818;51.078;12.108;2024-02-21T13:54:02;3.92;;;1.40;;
35699;SDS011;21818;51.078;12.108;2024-02-21T13:56:29;2.75;;;1.00;;
35699;SDS011;21818;51.078;12.108;2024-02-21T13:58:54;1.60;;;0.90;;
35699;SDS011;21818;51.078;12.108;2024-02-21T14:01:20;2.80;;;1.05;;
35699;SDS011;21818;51.078;12.108;2024-02-21T14:03:46;2.08;;;1.20;;
35699;SDS011;21818;51.078;12.108;2024-02-21T14:06:11;1.70;;;0.85;;
35699;SDS011;21818;51.078;12.108;2024-02-21T14:08:37;2.70;;;1.10;;
35699;SDS011;21818;51.078;12.108;2024-02-21T14:11:04;2.25;;;0.90;;
35699;SDS011;21818;51.078;12.108;2024-02-21T14:13:31;5.38;;;1.15;;
35699;SDS011;21818;51.078;12.108;2024-02-21T14:15:56;3.05;;;1.15;;
35699;SDS011;21818;51.078;12.108;2024-02-21T14:18:22;5.50;;;1.00;;
35699;SDS011;21818;51.078;12.108;2024-02-21T14:20:48;3.50;;;1.23;;
35699;SDS011;21818;51.078;12.108;2024-02-21T14:23:13;2.05;;;0.77;;
35699;SDS011;21818;51.078;12.108;2024-02-21T14:25:39;3.97;;;1.48;;
35699;SDS011;21818;51.078;12.108;2024-02-21T14:28:05;3.50;;;1.30;;
35699;SDS011;21818;51.078;12.108;2024-02-21T14:30:30;2.35;;;1.00;;
35699;SDS011;21818;51.078;12.108;2024-02-21T14:32:56;3.65;;;1.00;;
35699;SDS011;21818;51.078;12.108;2024-02-21T14:35:22;3.30;;;1.00;;
35699;SDS011;21818;51.078;12.108;2024-02-21T14:37:47;2.05;;;0.90;;